createdAt,value
2023-02-28T00:01:34.179Z,102673.31
2023-02-28T00:04:01.868Z,102676.63
2023-02-28T00:06:29.076Z,102670.66
2023-02-28T00:08:56.634Z,102673.00
2023-02-28T00:11:23.843Z,102672.16
2023-02-28T00:13:51.066Z,102673.00
2023-02-28T00:16:23.185Z,102678.16
2023-02-28T00:18:51.071Z,102679.00
2023-02-28T00:21:19.514Z,102672.84
2023-02-28T00:23:46.922Z,102676.50
2023-02-28T00:26:14.166Z,102673.53
2023-02-28T00:28:45.163Z,102668.53
2023-02-28T00:31:12.330Z,102672.69
2023-02-28T00:33:39.294Z,102671.88
2023-02-28T00:36:10.625Z,102689.44
2023-02-28T00:38:39.579Z,102675.34
2023-02-28T00:41:07.354Z,102672.69
2023-02-28T00:43:39.762Z,102678.84
2023-02-28T00:46:08.059Z,102676.34
2023-02-28T00:48:35.268Z,102677.31
2023-02-28T00:51:02.883Z,102681.94
2023-02-28T00:53:30.557Z,102683.59
2023-02-28T00:55:59.383Z,102676.63
2023-02-28T00:58:27.588Z,102675.13
2023-02-28T01:00:55.002Z,102691.56
2023-02-28T01:03:23.504Z,102684.75
2023-02-28T01:05:51.274Z,102684.75
2023-02-28T01:08:18.341Z,102674.44
2023-02-28T01:10:45.710Z,102672.78
2023-02-28T01:13:13.544Z,102674.59
2023-02-28T01:15:45.399Z,102673.09
2023-02-28T01:18:12.862Z,102673.38
2023-02-28T01:20:40.114Z,102668.53
2023-02-28T01:23:07.179Z,102674.28
2023-02-28T01:25:38.694Z,102670.59
2023-02-28T01:28:06.864Z,102662.41
2023-02-28T01:30:35.087Z,102664.97
2023-02-28T01:33:02.228Z,102666.41
2023-02-28T01:35:29.148Z,102665.91
2023-02-28T01:37:58.439Z,102673.91
2023-02-28T01:40:28.324Z,102666.00
2023-02-28T01:42:56.211Z,102658.13
2023-02-28T01:45:35.311Z,102665.13
2023-02-28T01:48:08.963Z,102655.72
2023-02-28T01:50:40.977Z,102652.97
2023-02-28T01:53:15.574Z,102674.84
2023-02-28T01:55:46.463Z,102663.47
2023-02-28T01:58:14.000Z,102669.59
2023-02-28T02:00:43.912Z,102664.88
2023-02-28T02:03:17.198Z,102660.75
2023-02-28T02:05:48.671Z,102662.84
2023-02-28T02:08:26.773Z,102672.44
2023-02-28T02:10:58.660Z,102656.19
2023-02-28T02:13:37.366Z,102669.13
2023-02-28T02:16:53.211Z,102666.63
2023-02-28T02:20:03.985Z,102661.91
2023-02-28T02:23:02.841Z,102661.63
2023-02-28T02:26:39.947Z,102661.50
2023-02-28T02:29:30.045Z,102661.22
2023-02-28T02:32:24.844Z,102662.59
2023-02-28T02:35:18.710Z,102653.53
2023-02-28T02:38:06.792Z,102669.81
2023-02-28T02:40:44.616Z,102667.03
2023-02-28T02:43:30.455Z,102666.47
2023-02-28T02:46:06.471Z,102657.84
2023-02-28T02:48:37.482Z,102667.16
2023-02-28T02:51:15.566Z,102663.09
2023-02-28T02:53:54.275Z,102668.38
2023-02-28T02:56:27.056Z,102669.50
2023-02-28T02:59:01.349Z,102664.34
2023-02-28T03:01:32.483Z,102670.47
2023-02-28T03:04:05.008Z,102670.72
2023-02-28T03:06:32.226Z,102666.56
2023-02-28T03:09:01.019Z,102662.53
2023-02-28T03:11:28.832Z,102670.59
2023-02-28T03:14:12.009Z,102683.22
2023-02-28T03:17:29.593Z,102679.03
2023-02-28T03:20:18.335Z,102676.50
2023-02-28T03:23:15.874Z,102683.84
2023-02-28T03:26:03.811Z,102687.03
2023-02-28T03:28:59.969Z,102682.25
2023-02-28T03:31:41.373Z,102691.53
2023-02-28T03:34:22.764Z,102677.22
2023-02-28T03:36:55.258Z,102681.06
2023-02-28T03:39:35.527Z,102682.44
2023-02-28T03:42:11.288Z,102686.31
2023-02-28T03:44:42.282Z,102691.72
2023-02-28T03:47:18.884Z,102687.81
2023-02-28T03:49:59.168Z,102688.06
2023-02-28T03:52:34.783Z,102690.13
2023-02-28T03:55:08.120Z,102681.63
2023-02-28T03:57:57.740Z,102688.84
2023-02-28T04:00:38.003Z,102676.31
2023-02-28T04:03:05.789Z,102690.47
2023-02-28T04:05:33.205Z,102686.41
2023-02-28T04:08:09.040Z,102701.50
2023-02-28T04:10:35.978Z,102694.84
2023-02-28T04:13:03.183Z,102693.41
2023-02-28T04:15:30.216Z,102698.81
2023-02-28T04:17:57.244Z,102692.25
2023-02-28T04:20:24.295Z,102697.53
2023-02-28T04:22:51.322Z,102688.47
2023-02-28T04:25:18.427Z,102690.50
2023-02-28T04:27:45.508Z,102704.41
2023-02-28T04:30:13.475Z,102694.47
2023-02-28T04:32:40.489Z,102701.66
2023-02-28T04:35:08.769Z,102700.84
2023-02-28T04:37:37.769Z,102704.56
2023-02-28T04:40:05.440Z,102705.78
2023-02-28T04:42:36.412Z,102700.75
2023-02-28T04:45:04.491Z,102711.53
2023-02-28T04:47:31.959Z,102710.00
2023-02-28T04:49:59.503Z,102704.16
2023-02-28T04:52:29.065Z,102705.13
2023-02-28T04:54:56.074Z,102720.19
2023-02-28T04:57:23.094Z,102714.22
2023-02-28T04:59:50.153Z,102720.56
2023-02-28T05:02:17.256Z,102719.03
2023-02-28T05:04:44.340Z,102720.13
2023-02-28T05:07:11.240Z,102714.25
2023-02-28T05:09:38.130Z,102713.31
2023-02-28T05:12:05.299Z,102719.66
2023-02-28T05:14:32.191Z,102725.88
2023-02-28T05:16:59.157Z,102731.28
2023-02-28T05:19:26.108Z,102726.25
2023-02-28T05:21:55.658Z,102734.16
2023-02-28T05:24:26.133Z,102719.81
2023-02-28T05:26:55.040Z,102734.53
2023-02-28T05:29:22.733Z,102727.81
2023-02-28T05:31:49.871Z,102720.19
2023-02-28T05:34:17.071Z,102728.06
2023-02-28T05:36:44.520Z,102734.31
2023-02-28T05:39:13.699Z,102727.72
2023-02-28T05:41:43.296Z,102726.66
2023-02-28T05:44:11.003Z,102739.09
2023-02-28T05:46:38.143Z,102742.69
2023-02-28T05:49:05.516Z,102737.66
2023-02-28T05:51:32.814Z,102732.66
2023-02-28T05:54:02.192Z,102741.25
2023-02-28T05:56:30.253Z,102748.44
2023-02-28T05:58:57.525Z,102742.47
2023-02-28T06:01:46.060Z,102741.88
2023-02-28T06:04:30.364Z,102746.16
2023-02-28T06:06:58.621Z,102739.25
2023-02-28T06:09:25.940Z,102735.88
2023-02-28T06:11:53.356Z,102742.81
2023-02-28T06:14:21.304Z,102745.34
2023-02-28T06:16:48.802Z,102747.13
2023-02-28T06:19:16.602Z,102750.59
2023-02-28T06:21:44.328Z,102759.09
2023-02-28T06:24:11.847Z,102756.34
2023-02-28T06:26:39.137Z,102757.88
2023-02-28T06:29:06.129Z,102751.53
2023-02-28T06:31:33.644Z,102760.16
2023-02-28T06:34:00.821Z,102763.63
2023-02-28T06:36:27.893Z,102765.06
2023-02-28T06:38:56.986Z,102759.91
2023-02-28T06:41:27.029Z,102769.81
2023-02-28T06:43:54.611Z,102775.69
2023-02-28T06:46:21.956Z,102766.81
2023-02-28T06:48:49.086Z,102781.88
2023-02-28T06:51:25.466Z,102777.78
2023-02-28T06:53:52.816Z,102778.38
2023-02-28T06:56:21.649Z,102788.63
2023-02-28T06:58:51.517Z,102790.78
2023-02-28T07:01:20.053Z,102791.09
2023-02-28T07:03:48.085Z,102795.38
2023-02-28T07:06:15.189Z,102787.88
2023-02-28T07:08:42.224Z,102787.41
2023-02-28T07:11:09.342Z,102794.34
2023-02-28T07:13:37.060Z,102789.53
2023-02-28T07:16:08.686Z,102780.34
2023-02-28T07:18:37.170Z,102780.84
2023-02-28T07:21:09.707Z,102777.47
2023-02-28T07:23:41.069Z,102781.69
2023-02-28T07:26:15.783Z,102784.03
2023-02-28T07:28:43.788Z,102784.75
2023-02-28T07:31:11.708Z,102785.09
2023-02-28T07:33:39.468Z,102784.00
2023-02-28T07:36:19.908Z,102790.00
2023-02-28T07:38:50.675Z,102788.38
2023-02-28T07:41:22.570Z,102789.50
2023-02-28T07:43:50.056Z,102786.34
2023-02-28T07:46:17.816Z,102779.66
2023-02-28T07:48:45.835Z,102786.00
2023-02-28T07:51:13.117Z,102786.00
2023-02-28T07:53:40.640Z,102776.94
2023-02-28T07:56:08.205Z,102783.97
2023-02-28T07:58:35.653Z,102782.06
2023-02-28T08:01:10.777Z,102784.59
2023-02-28T08:03:39.336Z,102788.81
2023-02-28T08:06:09.107Z,102789.16
2023-02-28T08:08:36.197Z,102779.25
2023-02-28T08:11:04.427Z,102775.94
2023-02-28T08:13:31.873Z,102786.44
2023-02-28T08:15:59.011Z,102775.91
2023-02-28T08:18:25.936Z,102778.66
2023-02-28T08:20:52.953Z,102766.72
2023-02-28T08:23:19.760Z,102761.88
2023-02-28T08:25:55.034Z,102770.44
2023-02-28T08:28:23.559Z,102775.47
2023-02-28T08:30:51.503Z,102777.38
2023-02-28T08:33:18.525Z,102772.59
2023-02-28T08:35:45.519Z,102778.88
2023-02-28T08:38:12.545Z,102769.13
2023-02-28T08:40:39.579Z,102778.00
2023-02-28T08:43:06.752Z,102769.28
2023-02-28T08:45:33.952Z,102777.22
2023-02-28T08:48:00.992Z,102770.03
2023-02-28T08:50:28.030Z,102762.44
2023-02-28T08:52:54.938Z,102773.13
2023-02-28T08:55:21.794Z,102767.47
2023-02-28T08:57:48.809Z,102771.66
2023-02-28T09:00:15.977Z,102764.44
2023-02-28T09:02:44.659Z,102769.19
2023-02-28T09:05:11.616Z,102767.81
2023-02-28T09:07:38.546Z,102773.09
2023-02-28T09:10:05.834Z,102760.88
2023-02-28T09:12:36.646Z,102762.75
2023-02-28T09:15:04.737Z,102773.97
2023-02-28T09:17:32.173Z,102761.09
2023-02-28T09:19:59.424Z,102757.50
2023-02-28T09:22:26.934Z,102754.00
2023-02-28T09:24:54.103Z,102754.81
2023-02-28T09:27:21.083Z,102754.16
2023-02-28T09:29:48.220Z,102754.50
2023-02-28T09:32:15.217Z,102752.84
2023-02-28T09:34:42.319Z,102752.91
2023-02-28T09:37:09.454Z,102746.13
2023-02-28T09:39:36.397Z,102755.19
2023-02-28T09:42:04.984Z,102756.44
2023-02-28T09:44:44.868Z,102759.88
2023-02-28T09:47:31.703Z,102760.88
2023-02-28T09:50:06.273Z,102758.69
2023-02-28T09:52:33.639Z,102753.00
2023-02-28T09:55:41.544Z,102751.72
2023-02-28T09:58:45.629Z,102751.72
2023-02-28T10:01:40.638Z,102744.56
2023-02-28T10:04:56.246Z,102757.78
2023-02-28T10:07:51.108Z,102742.88
2023-02-28T10:10:27.895Z,102757.38
2023-02-28T10:12:57.376Z,102745.91
2023-02-28T10:15:28.695Z,102748.03
2023-02-28T10:18:08.899Z,102747.22
2023-02-28T10:20:40.989Z,102746.34
2023-02-28T10:23:29.372Z,102747.03
2023-02-28T10:26:24.838Z,102742.53
2023-02-28T10:28:53.846Z,102738.75
2023-02-28T10:31:21.514Z,102739.72
2023-02-28T10:33:49.349Z,102726.41
2023-02-28T10:36:20.828Z,102727.06
2023-02-28T10:38:49.251Z,102741.28
2023-02-28T10:41:35.576Z,102742.66
2023-02-28T10:44:22.558Z,102735.84
2023-02-28T10:46:51.713Z,102738.19
2023-02-28T10:49:24.054Z,102737.13
2023-02-28T10:52:00.540Z,102736.09
2023-02-28T10:54:36.214Z,102725.22
2023-02-28T10:57:23.019Z,102727.41
2023-02-28T10:59:55.940Z,102714.09
2023-02-28T11:02:44.004Z,102711.50
2023-02-28T11:05:29.929Z,102706.66
2023-02-28T11:08:12.484Z,102707.94
2023-02-28T11:10:39.836Z,102699.66
2023-02-28T11:13:06.921Z,102694.06
2023-02-28T11:15:35.649Z,102703.19
2023-02-28T11:18:23.679Z,102694.38
2023-02-28T11:20:54.379Z,102683.84
2023-02-28T11:23:22.297Z,102681.72
2023-02-28T11:25:54.536Z,102676.59
2023-02-28T11:28:38.269Z,102686.03
2023-02-28T11:31:14.847Z,102680.34
2023-02-28T11:33:55.311Z,102680.91
2023-02-28T11:36:29.442Z,102684.41
2023-02-28T11:39:11.353Z,102678.25
2023-02-28T11:42:12.959Z,102668.94
2023-02-28T11:45:03.868Z,102672.94
2023-02-28T11:47:49.188Z,102676.41
2023-02-28T11:50:37.175Z,102680.19
2023-02-28T11:53:30.660Z,102672.09
2023-02-28T11:56:38.145Z,102676.22
2023-02-28T11:59:32.393Z,102680.53
2023-02-28T12:02:50.888Z,102671.94
2023-02-28T12:05:37.825Z,102665.00
2023-02-28T12:08:32.940Z,102662.84
2023-02-28T12:11:25.935Z,102674.16
2023-02-28T12:14:20.198Z,102666.91
2023-02-28T12:17:03.039Z,102660.59
2023-02-28T12:20:22.522Z,102655.22
2023-02-28T12:23:17.031Z,102652.13
2023-02-28T12:26:07.263Z,102655.88
2023-02-28T12:29:10.539Z,102644.19
2023-02-28T12:31:45.821Z,102644.88
2023-02-28T12:34:23.068Z,102634.84
2023-02-28T12:36:53.340Z,102630.94
2023-02-28T12:39:48.292Z,102629.09
2023-02-28T12:42:25.840Z,102627.13
2023-02-28T12:45:20.252Z,102615.97
2023-02-28T12:47:54.018Z,102609.59
2023-02-28T12:50:22.084Z,102608.13
2023-02-28T12:53:19.647Z,102590.91
2023-02-28T12:56:16.438Z,102597.25
2023-02-28T12:58:58.776Z,102582.94
2023-02-28T13:01:40.539Z,102574.00
2023-02-28T13:04:48.606Z,102579.69
2023-02-28T13:07:30.495Z,102575.94
2023-02-28T13:10:01.096Z,102581.63
2023-02-28T13:12:28.499Z,102573.19
2023-02-28T13:15:29.510Z,102576.28
2023-02-28T13:18:00.246Z,102569.72
2023-02-28T13:20:38.595Z,102568.91
2023-02-28T13:23:57.875Z,102577.66
2023-02-28T13:26:36.839Z,102580.16
2023-02-28T13:29:18.773Z,102581.66
2023-02-28T13:32:07.051Z,102578.91
2023-02-28T13:34:41.460Z,102568.94
2023-02-28T13:37:26.676Z,102583.31
2023-02-28T13:39:57.391Z,102579.56
2023-02-28T13:42:51.461Z,102585.88
2023-02-28T13:45:22.382Z,102572.22
2023-02-28T13:48:04.268Z,102575.66
2023-02-28T13:50:35.862Z,102571.19
2023-02-28T13:53:15.007Z,102573.72
2023-02-28T13:56:03.297Z,102559.97
2023-02-28T13:58:56.384Z,102557.91
2023-02-28T14:02:01.972Z,102548.78
2023-02-28T14:04:56.634Z,102553.81
2023-02-28T14:07:39.892Z,102552.91
2023-02-28T14:10:09.657Z,102554.53
2023-02-28T14:13:01.721Z,102546.19
2023-02-28T14:16:00.010Z,102555.41
2023-02-28T14:18:36.813Z,102556.00
2023-02-28T14:21:30.313Z,102558.25
2023-02-28T14:24:53.892Z,102555.91
2023-02-28T14:27:52.729Z,102557.44
2023-02-28T14:30:53.915Z,102558.44
2023-02-28T14:33:47.667Z,102548.34
2023-02-28T14:36:22.770Z,102555.59
2023-02-28T14:38:57.174Z,102549.44
2023-02-28T14:41:38.264Z,102555.38
2023-02-28T14:44:26.691Z,102557.06
2023-02-28T14:47:02.701Z,102552.84
2023-02-28T14:49:33.637Z,102554.03
2023-02-28T14:52:12.780Z,102549.63
2023-02-28T14:54:40.404Z,102546.94
2023-02-28T14:57:07.768Z,102554.31
2023-02-28T14:59:36.798Z,102562.56
2023-02-28T15:02:25.885Z,102566.22
2023-02-28T15:05:11.070Z,102562.53
2023-02-28T15:07:38.327Z,102557.25
2023-02-28T15:10:21.128Z,102552.41
2023-02-28T15:12:59.094Z,102544.81
2023-02-28T15:16:01.072Z,102557.09
2023-02-28T15:18:52.451Z,102548.19
2023-02-28T15:22:05.251Z,102552.09
2023-02-28T15:24:40.160Z,102552.94
2023-02-28T15:27:29.501Z,102548.72
2023-02-28T15:30:00.484Z,102536.44
2023-02-28T15:32:46.506Z,102537.84
2023-02-28T15:35:42.973Z,102536.00
2023-02-28T15:38:27.991Z,102541.91
2023-02-28T15:40:58.321Z,102542.84
2023-02-28T15:43:33.133Z,102540.03
2023-02-28T15:46:10.789Z,102538.41
2023-02-28T15:49:18.621Z,102552.13
2023-02-28T15:51:45.690Z,102546.25
2023-02-28T15:54:25.460Z,102549.41
2023-02-28T15:56:55.382Z,102547.47
2023-02-28T15:59:30.908Z,102547.78
2023-02-28T16:02:22.475Z,102540.22
2023-02-28T16:05:15.742Z,102553.69
2023-02-28T16:07:44.467Z,102559.47
2023-02-28T16:10:16.972Z,102554.81
2023-02-28T16:12:44.840Z,102562.00
2023-02-28T16:15:27.160Z,102563.53
2023-02-28T16:17:55.021Z,102567.31
2023-02-28T16:20:27.435Z,102558.16
2023-02-28T16:22:55.314Z,102561.22
2023-02-28T16:25:30.262Z,102555.28
2023-02-28T16:28:01.208Z,102563.78
2023-02-28T16:30:32.861Z,102566.88
2023-02-28T16:33:00.879Z,102569.44
2023-02-28T16:35:27.893Z,102572.22
2023-02-28T16:37:55.467Z,102568.13
2023-02-28T16:40:29.438Z,102566.50
2023-02-28T16:43:00.769Z,102561.13
2023-02-28T16:45:29.714Z,102568.94
2023-02-28T16:47:57.446Z,102556.09
2023-02-28T16:50:28.576Z,102568.84
2023-02-28T16:52:56.644Z,102573.03
2023-02-28T16:55:25.189Z,102571.53
2023-02-28T16:57:55.785Z,102576.34
2023-02-28T17:00:24.389Z,102577.63
2023-02-28T17:02:51.953Z,102581.19
2023-02-28T17:05:19.726Z,102582.03
2023-02-28T17:07:47.682Z,102580.22
2023-02-28T17:10:27.380Z,102572.72
2023-02-28T17:12:58.332Z,102589.16
2023-02-28T17:15:32.121Z,102586.63
2023-02-28T17:17:59.188Z,102588.56
2023-02-28T17:20:27.454Z,102599.47
2023-02-28T17:22:55.679Z,102596.19
2023-02-28T17:25:24.198Z,102586.59
2023-02-28T17:27:54.220Z,102590.25
2023-02-28T17:30:28.199Z,102593.78
2023-02-28T17:32:57.010Z,102591.97
2023-02-28T17:35:25.018Z,102600.63
2023-02-28T17:37:52.216Z,102599.94
2023-02-28T17:40:23.483Z,102596.63
2023-02-28T17:42:52.972Z,102599.09
2023-02-28T17:45:20.720Z,102601.41
2023-02-28T17:47:53.345Z,102601.19
2023-02-28T17:50:22.785Z,102595.38
2023-02-28T17:52:51.386Z,102600.13
2023-02-28T17:55:20.011Z,102604.06
2023-02-28T17:57:47.499Z,102607.00
2023-02-28T18:00:18.293Z,102602.97
2023-02-28T18:02:45.427Z,102595.28
2023-02-28T18:05:12.856Z,102609.34
2023-02-28T18:07:40.182Z,102604.16
2023-02-28T18:10:15.989Z,102605.94
2023-02-28T18:12:42.895Z,102600.03
2023-02-28T18:15:10.487Z,102600.78
2023-02-28T18:17:37.435Z,102592.09
2023-02-28T18:20:05.896Z,102600.81
2023-02-28T18:22:33.023Z,102613.16
2023-02-28T18:25:00.020Z,102613.78
2023-02-28T18:27:27.038Z,102618.19
2023-02-28T18:29:54.135Z,102618.25
2023-02-28T18:32:21.171Z,102624.03
2023-02-28T18:34:48.252Z,102618.13
2023-02-28T18:37:16.170Z,102624.56
2023-02-28T18:39:43.163Z,102627.38
2023-02-28T18:42:10.243Z,102632.97
2023-02-28T18:44:38.193Z,102644.16
2023-02-28T18:47:05.402Z,102636.28
2023-02-28T18:49:35.488Z,102637.03
2023-02-28T18:52:02.951Z,102641.09
2023-02-28T18:54:30.291Z,102649.78
2023-02-28T18:56:57.361Z,102651.06
2023-02-28T18:59:24.933Z,102643.03
2023-02-28T19:01:51.910Z,102642.78
2023-02-28T19:04:20.270Z,102630.41
2023-02-28T19:06:47.418Z,102640.47
2023-02-28T19:09:19.616Z,102632.41
2023-02-28T19:11:47.379Z,102637.31
2023-02-28T19:14:16.324Z,102628.09
2023-02-28T19:16:45.102Z,102629.53
2023-02-28T19:19:12.237Z,102630.94
2023-02-28T19:21:39.215Z,102627.19
2023-02-28T19:24:06.625Z,102625.13
2023-02-28T19:26:33.861Z,102615.94
2023-02-28T19:29:04.374Z,102631.28
2023-02-28T19:31:31.812Z,102631.84
2023-02-28T19:33:59.176Z,102642.56
2023-02-28T19:36:26.846Z,102634.22
2023-02-28T19:38:54.396Z,102636.44
2023-02-28T19:41:21.511Z,102647.44
2023-02-28T19:43:48.705Z,102647.31
2023-02-28T19:46:16.183Z,102644.53
2023-02-28T19:48:44.811Z,102642.31
2023-02-28T19:51:14.209Z,102640.78
2023-02-28T19:53:42.888Z,102640.22
2023-02-28T19:56:10.903Z,102639.53
2023-02-28T19:58:39.265Z,102631.06
2023-02-28T20:01:12.795Z,102634.66
2023-02-28T20:03:40.593Z,102639.38
2023-02-28T20:06:13.646Z,102634.06
2023-02-28T20:08:40.846Z,102644.09
2023-02-28T20:11:14.454Z,102646.72
2023-02-28T20:13:41.447Z,102643.66
2023-02-28T20:16:11.772Z,102644.66
2023-02-28T20:18:39.720Z,102637.41
2023-02-28T20:21:11.406Z,102641.88
2023-02-28T20:23:43.343Z,102638.81
2023-02-28T20:26:11.493Z,102631.16
2023-02-28T20:28:39.697Z,102631.56
2023-02-28T20:31:16.035Z,102636.03
2023-02-28T20:33:46.582Z,102639.06
2023-02-28T20:36:15.542Z,102639.63
2023-02-28T20:38:43.403Z,102633.91
2023-02-28T20:41:10.469Z,102637.38
2023-02-28T20:43:37.357Z,102630.44
2023-02-28T20:46:04.756Z,102622.78
2023-02-28T20:48:33.310Z,102619.47
2023-02-28T20:51:00.535Z,102631.00
2023-02-28T20:53:29.806Z,102602.63
2023-02-28T20:56:12.553Z,102621.81
2023-02-28T20:58:40.351Z,102614.16
2023-02-28T21:01:15.837Z,102612.63
2023-02-28T21:03:47.807Z,102619.03
2023-02-28T21:06:17.559Z,102624.69
2023-02-28T21:08:45.092Z,102624.00
2023-02-28T21:11:20.062Z,102628.72
2023-02-28T21:13:47.958Z,102616.19
2023-02-28T21:16:17.679Z,102616.91
2023-02-28T21:18:44.826Z,102612.00
2023-02-28T21:21:18.397Z,102610.59
2023-02-28T21:23:46.664Z,102622.38
2023-02-28T21:26:18.548Z,102625.16
2023-02-28T21:29:00.642Z,102628.06
2023-02-28T21:31:31.238Z,102627.50
2023-02-28T21:34:01.032Z,102626.09
2023-02-28T21:36:34.911Z,102616.78
2023-02-28T21:39:12.292Z,102619.69
2023-02-28T21:41:39.238Z,102619.25
2023-02-28T21:44:06.161Z,102613.41
2023-02-28T21:46:33.993Z,102613.53
2023-02-28T21:49:01.353Z,102612.25
2023-02-28T21:51:33.883Z,102622.09
2023-02-28T21:54:01.532Z,102624.03
2023-02-28T21:56:34.637Z,102626.81
2023-02-28T21:59:02.593Z,102634.13
2023-02-28T22:01:40.298Z,102631.75
2023-02-28T22:04:10.406Z,102629.38
2023-02-28T22:06:41.533Z,102631.44
2023-02-28T22:09:10.384Z,102623.69
2023-02-28T22:11:38.874Z,102634.34
2023-02-28T22:14:08.324Z,102639.75
2023-02-28T22:16:50.314Z,102632.94
2023-02-28T22:19:19.165Z,102633.06
2023-02-28T22:21:47.335Z,102631.41
2023-02-28T22:24:14.783Z,102638.34
2023-02-28T22:26:41.917Z,102639.56
2023-02-28T22:29:10.489Z,102641.22
2023-02-28T22:31:37.560Z,102635.25
2023-02-28T22:34:08.722Z,102641.63
2023-02-28T22:36:36.130Z,102639.94
2023-02-28T22:39:04.322Z,102640.91
2023-02-28T22:41:31.742Z,102642.25
2023-02-28T22:44:02.550Z,102649.19
2023-02-28T22:46:32.631Z,102640.69
2023-02-28T22:49:01.987Z,102643.84
2023-02-28T22:51:29.245Z,102652.72
2023-02-28T22:53:58.182Z,102655.22
2023-02-28T22:56:28.326Z,102658.81
2023-02-28T22:58:59.131Z,102660.47
2023-02-28T23:01:28.952Z,102658.94
2023-02-28T23:03:56.419Z,102665.16
2023-02-28T23:06:31.923Z,102671.28
2023-02-28T23:09:05.715Z,102661.84
2023-02-28T23:11:41.197Z,102673.59
2023-02-28T23:14:12.519Z,102681.88
2023-02-28T23:16:53.803Z,102672.16
2023-02-28T23:19:30.864Z,102675.75
2023-02-28T23:22:00.331Z,102681.88
2023-02-28T23:24:31.700Z,102690.03
2023-02-28T23:27:02.013Z,102686.69
2023-02-28T23:29:29.656Z,102690.41
2023-02-28T23:31:57.511Z,102687.88
2023-02-28T23:34:31.992Z,102698.44
2023-02-28T23:37:01.764Z,102690.78
2023-02-28T23:39:31.090Z,102676.78
2023-02-28T23:41:58.353Z,102676.91
2023-02-28T23:44:25.771Z,102672.72
2023-02-28T23:46:53.623Z,102670.34
2023-02-28T23:49:21.755Z,102660.91
2023-02-28T23:51:51.756Z,102660.91
2023-02-28T23:54:19.370Z,102667.97
2023-02-28T23:56:46.896Z,102664.75
2023-02-28T23:59:13.885Z,102655.31
